Totowa Boro, New Jersey
Current Conditions -  °F | °C
As of 7:53 PM on Tuesday 27 Jan 2015 (Local Time) from KCDW Reporting Station
Clear Clear  
Wind Chill: 12°   Ceiling: Unl
Heat Index: 23°   Visibility: 10mi
Dew Point:   Wind: 10mph
Humidity: 55%   Direction: 340°NNW
Pressure: 29.78"   Gusts: NA
Location:  40.904°N, 74.2218°W
Report Text: KCDW 280053Z 34009KT 10SM CLR M05/M13 A2978 RMK AO2 SLP091 T10501128
Loading
Personal Weather Stations






























Interactive Weather Map New forecast layout! Learn more

10-Day Weather Forecast

Advertisements
Track Severe Weather on mobile